Time;durP1;ratioP1;P1;durP2;ratioP2;P2;SDS_P1;SDS_P2;PMS_P1;PMS_P2;Temp;Humidity;BMP_temperature;BMP_pressure;BME280_temperature;BME280_humidity;BME280_pressure;Samples;Min_cycle;Max_cycle;Signal;HPM_P1;HPM_P2
2022/10/26 00:01:49;;;;;;;10.02;3.28;;;;;;;10.68;65.90;99904.84;10338089;28;20057;-65
2022/10/26 00:06:51;;;;;;;14.23;4.22;;;;;;;10.73;65.75;99908.00;10343834;28;20218;-65
2022/10/26 00:11:53;;;;;;;15.20;4.40;;;;;;;10.77;65.93;99911.25;10341656;28;20085;-65
2022/10/26 00:16:55;;;;;;;11.65;4.75;;;;;;;10.77;65.77;99906.88;10336663;28;20127;-65
2022/10/26 00:21:56;;;;;;;12.82;4.35;;;;;;;10.65;65.91;99896.31;10343318;28;20042;-65
2022/10/26 00:26:58;;;;;;;13.98;5.18;;;;;;;10.44;66.63;99887.97;10341637;28;20345;-65
2022/10/26 00:32:00;;;;;;;12.32;4.68;;;;;;;10.46;66.85;99893.97;10341565;28;20241;-65
2022/10/26 00:37:02;;;;;;;12.70;4.18;;;;;;;10.59;66.53;99892.28;10342447;28;20037;-65
2022/10/26 00:42:04;;;;;;;12.30;4.43;;;;;;;10.60;66.53;99893.16;10342150;28;20473;-65
2022/10/26 00:47:10;;;;;;;9.27;4.47;;;;;;;10.38;67.29;99898.78;10336843;28;20127;-65
2022/10/26 00:52:13;;;;;;;10.10;4.68;;;;;;;10.50;67.39;99908.56;10340014;28;20517;-65
2022/10/26 00:57:17;;;;;;;14.75;4.10;;;;;;;10.54;67.10;99911.81;10336983;28;20053;-65
2022/10/26 01:02:19;;;;;;;16.60;4.68;;;;;;;10.42;67.33;99911.59;10339437;28;20053;-65
2022/10/26 01:07:21;;;;;;;8.40;4.25;;;;;;;10.41;67.35;99916.94;10338470;28;20096;-65
2022/10/26 01:12:28;;;;;;;11.23;4.45;;;;;;;10.47;67.33;99913.94;10339370;28;20357;-65
2022/10/26 01:17:32;;;;;;;15.05;5.18;;;;;;;10.44;67.34;99901.91;10336651;28;20083;-65
2022/10/26 01:22:50;;;;;;;13.25;5.18;;;;;;;10.45;67.65;99905.34;10336124;28;20053;-65
2022/10/26 01:27:53;;;;;;;14.43;5.03;;;;;;;10.61;67.29;99906.13;10335948;28;20392;-65
2022/10/26 01:33:19;;;;;;;11.55;4.90;;;;;;;10.70;67.12;99891.66;10336849;28;20450;-65
2022/10/26 01:38:48;;;;;;;14.20;4.50;;;;;;;10.64;67.33;99892.88;10340664;28;20177;-65
2022/10/26 01:44:03;;;;;;;12.18;6.05;;;;;;;10.66;67.33;99879.69;10339043;28;20053;-65
2022/10/26 01:49:10;;;;;;;7.45;3.67;;;;;;;10.73;67.07;99881.00;10338504;28;20052;-65
2022/10/26 01:54:12;;;;;;;12.30;4.80;;;;;;;10.72;67.12;99861.00;10339219;28;20542;-66
2022/10/26 01:59:50;;;;;;;11.00;4.82;;;;;;;10.68;67.36;99862.97;10341034;28;20570;-66
2022/10/26 02:05:15;;;;;;;15.73;4.05;;;;;;;10.74;67.41;99882.69;10346061;28;20108;-65
2022/10/26 02:10:31;;;;;;;9.82;4.28;;;;;;;10.72;67.58;99885.41;10346589;28;20101;-65
2022/10/26 02:15:44;;;;;;;12.23;4.20;;;;;;;10.86;67.02;99882.78;10340477;28;20453;-65
2022/10/26 02:20:51;;;;;;;13.10;4.43;;;;;;;10.85;67.05;99888.06;10350149;28;20073;-65
2022/10/26 02:25:59;;;;;;;15.95;5.22;;;;;;;10.85;67.08;99878.47;10352219;28;20054;-65
2022/10/26 02:31:04;;;;;;;13.50;4.85;;;;;;;10.88;67.22;99864.38;10356607;28;20502;-65
2022/10/26 02:36:10;;;;;;;17.02;5.43;;;;;;;10.70;67.28;99852.41;10350600;28;20107;-64
2022/10/26 02:41:14;;;;;;;9.75;4.70;;;;;;;10.72;67.65;99850.56;10351830;28;20072;-65
2022/10/26 02:46:19;;;;;;;10.38;5.18;;;;;;;10.83;67.48;99859.41;10354454;28;20120;-65
2022/10/26 02:51:41;;;;;;;12.07;5.60;;;;;;;10.87;67.63;99846.97;10350533;28;20081;-65
2022/10/26 02:56:47;;;;;;;12.10;5.68;;;;;;;10.99;67.25;99846.22;10353489;28;20164;-66
2022/10/26 03:01:51;;;;;;;15.18;5.35;;;;;;;11.06;67.27;99847.53;10351173;28;20568;-66
2022/10/26 03:06:53;;;;;;;11.75;5.35;;;;;;;11.12;67.11;99855.00;10349400;28;20395;-66
2022/10/26 03:11:55;;;;;;;15.02;5.20;;;;;;;11.12;67.19;99845.38;10346677;28;20038;-66
2022/10/26 03:16:57;;;;;;;10.18;4.90;;;;;;;11.10;67.22;99852.50;10346547;28;20050;-65
2022/10/26 03:21:59;;;;;;;12.07;4.97;;;;;;;10.93;67.24;99857.91;10346222;28;20096;-66
2022/10/26 03:27:01;;;;;;;15.98;5.60;;;;;;;10.80;67.54;99862.22;10345268;28;20050;-66
2022/10/26 03:32:03;;;;;;;8.85;3.95;;;;;;;10.88;67.61;99848.66;10346111;28;20046;-65
2022/10/26 03:37:05;;;;;;;15.13;4.57;;;;;;;10.93;67.78;99834.34;10347492;28;20117;-66
2022/10/26 03:42:07;;;;;;;16.65;5.32;;;;;;;10.84;68.07;99837.56;10346307;28;20128;-66
2022/10/26 03:47:08;;;;;;;16.67;6.60;;;;;;;10.77;68.18;99823.16;10345883;28;20049;-66
2022/10/26 03:52:10;;;;;;;15.35;5.07;;;;;;;10.60;68.60;99846.06;10345650;28;20073;-66
2022/10/26 03:57:12;;;;;;;15.20;5.22;;;;;;;10.64;68.74;99843.19;10345381;28;20064;-66
2022/10/26 04:02:14;;;;;;;16.27;6.45;;;;;;;10.66;68.38;99835.22;10344314;28;20054;-66
2022/10/26 04:07:16;;;;;;;15.07;6.13;;;;;;;10.67;68.83;99827.28;10345589;28;20484;-66
2022/10/26 04:12:18;;;;;;;12.52;6.20;;;;;;;10.75;68.64;99818.94;10344575;28;20065;-66
2022/10/26 04:17:19;;;;;;;13.13;6.22;;;;;;;10.69;68.97;99835.88;10345402;28;20053;-66
2022/10/26 04:22:21;;;;;;;12.88;6.80;;;;;;;10.78;68.79;99824.84;10346273;28;20054;-67
2022/10/26 04:27:23;;;;;;;15.30;6.75;;;;;;;10.86;68.63;99834.84;10344120;28;20580;-67
2022/10/26 04:32:25;;;;;;;17.83;8.10;;;;;;;10.94;68.24;99836.03;10345730;28;20054;-67
2022/10/26 04:37:27;;;;;;;14.23;6.75;;;;;;;10.96;68.56;99833.31;10344057;28;20467;-67
2022/10/26 04:42:32;;;;;;;17.15;7.57;;;;;;;11.00;68.53;99830.44;10343472;28;20061;-67
2022/10/26 04:47:34;;;;;;;12.98;6.43;;;;;;;10.86;68.51;99809.53;10340900;28;20057;-66
2022/10/26 04:52:37;;;;;;;15.63;6.68;;;;;;;10.85;69.08;99820.06;10341172;28;20562;-67
2022/10/26 04:57:38;;;;;;;18.42;8.02;;;;;;;10.91;68.85;99810.06;10343008;28;20508;-67
2022/10/26 05:02:40;;;;;;;24.10;9.50;;;;;;;10.83;68.91;99817.53;10341425;28;20346;-67
2022/10/26 05:07:42;;;;;;;14.45;7.65;;;;;;;10.77;69.09;99810.09;10342566;28;20075;-67
2022/10/26 05:12:50;;;;;;;16.88;6.32;;;;;;;10.83;69.09;99814.94;10339391;28;20050;-67
2022/10/26 05:18:01;;;;;;;12.98;6.65;;;;;;;10.80;69.30;99817.75;10341056;28;20046;-66
2022/10/26 05:23:10;;;;;;;10.73;5.50;;;;;;;10.94;68.90;99809.88;10342653;28;20136;-67
2022/10/26 05:28:13;;;;;;;15.43;6.35;;;;;;;10.97;68.88;99820.13;10342897;28;20135;-66
2022/10/26 05:33:15;;;;;;;15.70;5.72;;;;;;;10.87;68.90;99821.66;10342009;28;20045;-66
2022/10/26 05:38:17;;;;;;;12.38;7.18;;;;;;;10.83;69.44;99820.16;10340848;28;21744;-66
2022/10/26 05:43:23;;;;;;;21.88;8.80;;;;;;;10.89;69.42;99819.78;10340927;28;20438;-65
2022/10/26 05:48:25;;;;;;;17.48;8.50;;;;;;;10.94;69.13;99819.50;10340452;28;20506;-67
2022/10/26 05:53:27;;;;;;;15.43;7.35;;;;;;;11.02;69.01;99825.09;10339991;28;20077;-66
2022/10/26 05:58:29;;;;;;;16.38;8.27;;;;;;;11.01;69.13;99813.78;10350677;28;20038;-66
2022/10/26 06:03:46;;;;;;;17.38;7.05;;;;;;;11.06;69.16;99818.75;10348333;28;20430;-66
2022/10/26 06:08:48;;;;;;;20.20;7.70;;;;;;;11.16;69.11;99825.09;10348350;28;20096;-66
2022/10/26 06:13:53;;;;;;;19.42;9.45;;;;;;;11.17;68.97;99824.16;10348933;28;20474;-66
2022/10/26 06:19:29;;;;;;;14.15;8.35;;;;;;;11.10;68.79;99839.41;10349770;28;20049;-66
2022/10/26 06:24:41;;;;;;;20.67;8.45;;;;;;;11.16;69.24;99840.78;10348095;28;20062;-66
2022/10/26 06:30:02;;;;;;;19.98;8.43;;;;;;;11.14;69.15;99851.34;10348659;28;20127;-66
2022/10/26 06:35:28;;;;;;;16.88;8.63;;;;;;;11.18;69.02;99862.47;10347605;28;20057;-66
2022/10/26 06:40:32;;;;;;;17.65;7.55;;;;;;;11.36;68.90;99863.09;10347254;28;20564;-66
2022/10/26 06:45:35;;;;;;;15.90;6.82;;;;;;;11.48;68.68;99862.31;10343652;28;20053;-66
2022/10/26 06:50:43;;;;;;;15.38;8.10;;;;;;;11.56;68.72;99873.13;10346116;28;20065;-67
2022/10/26 06:55:48;;;;;;;22.70;8.35;;;;;;;11.63;68.44;99879.63;10347247;28;20073;-67
2022/10/26 07:00:53;;;;;;;18.45;8.40;;;;;;;11.53;68.67;99886.41;10344869;28;20072;-67
2022/10/26 07:05:55;;;;;;;20.65;7.90;;;;;;;11.70;68.42;99884.38;10344596;28;20057;-67
2022/10/26 07:10:57;;;;;;;20.10;8.25;;;;;;;11.79;67.96;99899.50;10347401;28;20058;-67
2022/10/26 07:15:59;;;;;;;13.07;7.65;;;;;;;12.00;67.74;99902.50;10343974;28;20049;-67
2022/10/26 07:21:00;;;;;;;15.18;8.43;;;;;;;12.16;67.58;99897.91;10346182;28;20045;-66
2022/10/26 07:26:02;;;;;;;17.52;9.20;;;;;;;12.24;67.30;99906.13;10347622;28;20513;-66
2022/10/26 07:31:04;;;;;;;17.88;9.50;;;;;;;12.24;67.68;99906.13;10347918;28;20054;-67
2022/10/26 07:36:09;;;;;;;12.55;7.47;;;;;;;12.30;67.32;99915.38;10347651;28;20049;-67
2022/10/26 07:41:11;;;;;;;17.38;7.95;;;;;;;12.41;67.26;99918.97;10348245;28;20362;-66
2022/10/26 07:46:13;;;;;;;16.05;9.07;;;;;;;12.53;67.30;99923.38;10347935;28;20060;-67
2022/10/26 07:51:15;;;;;;;13.65;7.30;;;;;;;12.68;66.92;99926.75;10346048;28;20068;-67
2022/10/26 07:56:17;;;;;;;14.50;8.93;;;;;;;12.81;66.86;99930.22;10342507;28;20081;-65
2022/10/26 08:01:19;;;;;;;12.43;8.68;;;;;;;12.86;66.41;99934.19;10348092;28;20136;-65
2022/10/26 08:06:22;;;;;;;17.90;8.80;;;;;;;12.94;66.24;99942.38;10346780;28;20049;-65
2022/10/26 08:11:24;;;;;;;18.65;8.35;;;;;;;13.10;65.98;99946.56;10335944;28;20061;-66
2022/10/26 08:16:26;;;;;;;17.55;7.53;;;;;;;13.12;65.61;99956.03;10335871;28;20053;-64
2022/10/26 08:21:28;;;;;;;17.48;8.15;;;;;;;13.19;65.56;99949.38;10340554;28;20054;-74
2022/10/26 08:26:41;;;;;;;18.83;7.47;;;;;;;13.23;65.36;99945.59;10341585;28;20061;-74
2022/10/26 08:31:43;;;;;;;21.20;7.00;;;;;;;13.51;64.80;99940.13;10343412;28;20053;-74
2022/10/26 08:36:45;;;;;;;17.40;6.68;;;;;;;13.40;65.10;99936.53;10332138;28;20038;-73
2022/10/26 08:41:53;;;;;;;20.58;8.63;;;;;;;13.55;64.86;99938.09;10334214;28;20229;-74
2022/10/26 08:47:28;;;;;;;17.90;7.15;;;;;;;13.68;64.85;99950.25;10343564;28;20042;-73
2022/10/26 08:52:51;;;;;;;14.50;7.38;;;;;;;13.99;63.88;99958.53;10339428;28;20050;-74
2022/10/26 08:57:53;;;;;;;13.32;6.57;;;;;;;14.16;63.26;99952.88;10339990;28;20065;-73
2022/10/26 09:02:55;;;;;;;15.63;7.43;;;;;;;14.31;63.71;99952.56;10329730;28;20058;-74
2022/10/26 09:08:03;;;;;;;15.07;6.68;;;;;;;14.14;63.83;99955.63;10339053;28;20060;-74
2022/10/26 09:13:05;;;;;;;15.65;6.82;;;;;;;14.00;64.00;99960.22;10335487;28;20455;-74
2022/10/26 09:18:39;;;;;;;12.10;6.45;;;;;;;13.73;64.39;99957.78;10340729;28;20383;-74
2022/10/26 09:23:56;;;;;;;15.50;6.60;;;;;;;13.84;64.42;99960.47;10328320;28;20052;-75
2022/10/26 09:29:06;;;;;;;11.43;6.60;;;;;;;14.19;63.85;99978.94;10327287;28;20557;-74
2022/10/26 09:34:15;;;;;;;15.73;6.97;;;;;;;14.48;63.79;99980.25;10324564;28;20094;-74
2022/10/26 09:39:30;;;;;;;16.23;7.30;;;;;;;14.82;63.06;99982.03;10334391;28;20065;-74
2022/10/26 09:45:10;;;;;;;16.45;6.68;;;;;;;14.96;61.74;99983.63;10335745;28;20049;-74
2022/10/26 09:50:39;;;;;;;17.98;5.90;;;;;;;14.97;61.39;99995.81;10340508;28;20675;-75
2022/10/26 09:55:47;;;;;;;12.68;5.75;;;;;;;15.21;61.20;99988.66;10318648;28;20046;-75
2022/10/26 10:00:50;;;;;;;13.95;5.72;;;;;;;15.11;61.41;99995.59;10335309;28;20883;-75
2022/10/26 10:05:54;;;;;;;14.23;5.82;;;;;;;15.19;61.60;99987.94;10343645;28;20149;-74
2022/10/26 10:11:04;;;;;;;12.15;5.45;;;;;;;15.31;61.14;100000.16;10332927;28;20065;-74
2022/10/26 10:16:13;;;;;;;13.93;5.57;;;;;;;15.56;61.09;100010.47;10342093;28;20077;-74
2022/10/26 10:21:15;;;;;;;13.73;4.68;;;;;;;15.82;60.30;100016.31;10338029;28;20058;-75
2022/10/26 10:26:17;;;;;;;11.25;3.95;;;;;;;16.06;59.27;100022.28;10338598;28;20054;-71
2022/10/26 10:31:26;;;;;;;9.60;4.18;;;;;;;16.40;58.52;100025.63;10331543;28;20050;-71
2022/10/26 10:36:29;;;;;;;9.30;3.38;;;;;;;16.59;58.36;100026.66;10338035;28;20057;-73
2022/10/26 10:41:38;;;;;;;12.00;3.85;;;;;;;16.77;58.17;100034.88;10338526;28;20116;-74
2022/10/26 10:46:40;;;;;;;14.35;4.70;;;;;;;16.62;58.08;100041.41;10349236;28;20090;-76
2022/10/26 10:51:43;;;;;;;11.80;3.83;;;;;;;16.36;58.65;100045.31;10344585;28;20050;-72
2022/10/26 10:56:56;;;;;;;8.88;3.90;;;;;;;16.30;58.81;100040.56;10348063;28;20078;-74
2022/10/26 11:02:21;;;;;;;12.75;4.10;;;;;;;16.23;59.06;100046.31;10344097;28;20050;-73
2022/10/26 11:07:26;;;;;;;13.38;3.70;;;;;;;16.34;59.25;100044.63;10349319;28;20132;-73
2022/10/26 11:12:36;;;;;;;10.18;3.55;;;;;;;16.36;59.74;100045.31;10343055;28;20557;-73
2022/10/26 11:18:06;;;;;;;10.25;3.60;;;;;;;16.46;59.35;100051.56;10347930;28;20054;-73
2022/10/26 11:23:28;;;;;;;9.23;3.83;;;;;;;16.58;59.23;100045.28;10343315;28;20061;-73
2022/10/26 11:28:48;;;;;;;13.85;3.90;;;;;;;16.74;59.40;100045.66;10349183;28;20149;-73
2022/10/26 11:34:26;;;;;;;11.68;3.60;;;;;;;16.88;59.32;100042.72;10348187;28;20050;-73
2022/10/26 11:39:43;;;;;;;14.85;3.70;;;;;;;17.06;59.23;100053.56;10348721;28;20053;-72
2022/10/26 11:44:56;;;;;;;9.18;2.85;;;;;;;17.35;59.00;100054.56;10346885;28;20061;-73
2022/10/26 11:50:24;;;;;;;10.00;2.97;;;;;;;17.74;57.63;100054.63;10349928;28;20053;-73
2022/10/26 11:55:28;;;;;;;10.80;3.13;;;;;;;18.19;57.76;100043.56;10349084;28;20054;-73
2022/10/26 12:00:31;;;;;;;10.93;2.78;;;;;;;18.23;56.83;100050.31;10348885;28;20108;-73
2022/10/26 12:05:43;;;;;;;9.40;3.20;;;;;;;18.13;58.14;100049.41;10348694;28;20062;-73
2022/10/26 12:10:51;;;;;;;10.00;2.80;;;;;;;18.30;58.23;100051.44;10346815;28;20478;-73
2022/10/26 12:16:20;;;;;;;9.35;2.55;;;;;;;18.41;56.31;100052.13;10346526;28;20978;-72
2022/10/26 12:21:26;;;;;;;6.72;2.10;;;;;;;18.90;56.04;100042.34;10346067;28;20099;-73
2022/10/26 12:26:28;;;;;;;7.43;2.10;;;;;;;19.27;54.54;100043.28;10347260;28;20054;-73
2022/10/26 12:31:35;;;;;;;8.98;1.80;;;;;;;19.50;52.65;100059.69;10348177;28;20081;-73
2022/10/26 12:36:56;;;;;;;6.65;1.95;;;;;;;19.44;51.23;100056.63;10344913;28;20054;-74
2022/10/26 12:42:04;;;;;;;6.80;1.70;;;;;;;19.66;51.81;100059.91;10361542;28;20054;-73
2022/10/26 12:47:09;;;;;;;6.80;1.90;;;;;;;19.97;51.02;100072.75;10346518;28;20053;-73
2022/10/26 12:52:19;;;;;;;5.03;1.92;;;;;;;20.11;49.97;100069.59;10346321;28;20079;-73
2022/10/26 12:57:55;;;;;;;6.20;1.65;;;;;;;20.17;49.72;100073.50;10345516;28;20112;-73
2022/10/26 13:03:09;;;;;;;5.00;1.83;;;;;;;20.02;49.75;100074.97;10345206;28;20057;-73
2022/10/26 13:08:13;;;;;;;7.75;1.90;;;;;;;19.92;50.15;100066.22;10346345;28;20076;-73
2022/10/26 13:13:22;;;;;;;6.30;1.70;;;;;;;19.85;50.47;100071.28;10343646;28;20050;-73
2022/10/26 13:18:25;;;;;;;8.15;2.30;;;;;;;19.87;50.54;100071.13;10346176;28;20053;-73
2022/10/26 13:23:30;;;;;;;6.00;1.80;;;;;;;19.89;50.69;100082.44;10345642;28;20104;-73
2022/10/26 13:28:38;;;;;;;6.80;1.88;;;;;;;19.69;50.35;100089.63;10344398;28;20156;-73
2022/10/26 13:33:42;;;;;;;8.65;2.55;;;;;;;19.62;50.92;100096.50;10345233;28;20050;-73
2022/10/26 13:38:46;;;;;;;7.57;1.83;;;;;;;19.66;50.38;100100.53;10345912;28;20057;-73
2022/10/26 13:43:50;;;;;;;6.32;1.63;;;;;;;19.68;51.11;100095.09;10344896;28;20049;-73
2022/10/26 13:49:00;;;;;;;5.63;1.80;;;;;;;19.79;50.36;100100.19;10344159;28;20084;-73
2022/10/26 13:54:13;;;;;;;;;;;;;;;19.83;50.84;100109.56;10346317;28;20077;-73
2022/10/26 13:59:15;;;;;;;4.85;1.77;;;;;;;20.10;49.87;100106.94;10375930;28;19934;-73
2022/10/26 14:04:25;;;;;;;8.02;1.80;;;;;;;19.99;50.12;100112.47;10344307;28;20058;-73
2022/10/26 14:09:28;;;;;;;;;;;;;;;19.68;50.80;100116.31;10345867;28;20058;-73
2022/10/26 14:14:35;;;;;;;7.45;1.60;;;;;;;19.79;50.21;100124.91;10344807;28;20397;-73
2022/10/26 14:19:40;;;;;;;8.10;1.60;;;;;;;19.81;50.60;100124.78;10352520;28;20057;-73
2022/10/26 14:24:51;;;;;;;6.20;1.60;;;;;;;19.78;50.34;100127.72;10346778;28;20056;-73
2022/10/26 14:29:54;;;;;;;6.38;2.10;;;;;;;19.73;50.79;100122.00;10352020;28;20588;-73
2022/10/26 14:35:17;;;;;;;4.63;1.50;;;;;;;19.79;51.28;100135.53;10351147;28;20049;-73
2022/10/26 14:40:24;;;;;;;6.70;1.60;;;;;;;19.88;50.72;100136.53;10351932;28;20046;-72
2022/10/26 14:45:27;;;;;;;7.45;1.60;;;;;;;19.67;51.36;100135.84;10350514;28;20473;-73
2022/10/26 14:50:36;;;;;;;59.53;6.07;;;;;;;19.65;51.34;100149.28;10348519;28;20076;-73
2022/10/26 14:55:50;;;;;;;5.80;1.42;;;;;;;19.66;51.58;100144.81;10350348;28;20990;-73
2022/10/26 15:01:21;;;;;;;7.22;1.52;;;;;;;19.41;51.71;100157.72;10348139;28;20445;-73
2022/10/26 15:06:26;;;;;;;6.13;1.65;;;;;;;19.25;52.25;100170.72;10348418;28;20425;-73
2022/10/26 15:11:31;;;;;;;3.33;1.50;;;;;;;19.11;52.56;100171.16;10347585;28;20077;-73
2022/10/26 15:16:34;;;;;;;6.15;1.63;;;;;;;19.03;52.91;100172.81;10343845;28;20619;-74
2022/10/26 15:21:41;;;;;;;5.55;1.80;;;;;;;18.92;53.22;100179.06;10349083;28;20510;-73
2022/10/26 15:26:43;;;;;;;4.40;1.50;;;;;;;18.84;53.31;100183.38;10347479;28;20732;-73
2022/10/26 15:31:45;;;;;;;7.15;1.75;;;;;;;18.76;53.58;100189.38;10348136;28;20810;-72
2022/10/26 15:36:47;;;;;;;9.00;1.77;;;;;;;18.73;53.79;100192.28;10348530;28;20049;-73
2022/10/26 15:41:51;;;;;;;5.65;1.80;;;;;;;18.56;54.30;100201.72;10348785;28;20057;-74
2022/10/26 15:47:00;;;;;;;8.38;1.95;;;;;;;18.45;54.59;100216.88;10345402;28;20054;-72
2022/10/26 15:52:09;;;;;;;8.00;1.92;;;;;;;18.38;55.38;100218.41;10348269;28;20053;-74
2022/10/26 15:57:12;;;;;;;8.98;1.92;;;;;;;18.18;55.33;100227.22;10346595;28;20053;-74
2022/10/26 16:02:19;;;;;;;4.65;1.63;;;;;;;17.99;55.94;100227.97;10345405;28;20152;-74
2022/10/26 16:07:24;;;;;;;7.00;1.67;;;;;;;17.76;56.34;100232.56;10347587;28;20418;-74
2022/10/26 16:12:26;;;;;;;7.60;1.75;;;;;;;17.58;57.14;100234.13;10346179;28;20156;-73
2022/10/26 16:17:28;;;;;;;5.70;1.50;;;;;;;17.39;57.49;100241.06;10344038;28;20077;-73
2022/10/26 16:22:30;;;;;;;8.00;2.03;;;;;;;17.23;58.03;100237.97;10344581;28;20085;-73
2022/10/26 16:27:36;;;;;;;8.23;2.03;;;;;;;17.12;58.23;100252.06;10347347;28;20064;-73
2022/10/26 16:32:39;;;;;;;8.05;1.88;;;;;;;16.95;58.54;100265.81;10346229;28;20384;-73
2022/10/26 16:37:41;;;;;;;5.22;2.00;;;;;;;16.81;59.06;100269.53;10346051;28;20050;-73
2022/10/26 16:42:43;;;;;;;8.45;1.88;;;;;;;16.67;59.59;100276.91;10346431;28;20054;-73
2022/10/26 16:47:45;;;;;;;5.43;1.90;;;;;;;16.54;59.89;100282.31;10346027;28;20058;-73
2022/10/26 16:52:47;;;;;;;5.63;1.90;;;;;;;16.40;59.99;100284.31;10344597;28;20050;-72
2022/10/26 16:57:49;;;;;;;7.47;2.20;;;;;;;16.27;60.24;100287.06;10338108;28;20054;-73
2022/10/26 17:02:51;;;;;;;6.72;2.10;;;;;;;16.14;60.65;100300.38;10341397;28;20092;-73
2022/10/26 17:07:52;;;;;;;10.93;2.55;;;;;;;15.94;61.46;100318.69;10340629;28;20441;-73
2022/10/26 17:12:55;;;;;;;8.60;2.97;;;;;;;15.80;62.03;100322.38;10341862;28;20061;-72
2022/10/26 17:17:57;;;;;;;10.60;3.45;;;;;;;15.67;62.25;100329.53;10343095;28;20054;-72
2022/10/26 17:22:59;;;;;;;7.53;2.70;;;;;;;15.43;62.92;100336.56;10342138;28;20054;-65
2022/10/26 17:28:01;;;;;;;8.50;2.50;;;;;;;15.35;63.33;100337.13;10342405;28;20116;-65
2022/10/26 17:33:03;;;;;;;7.53;2.45;;;;;;;15.35;63.40;100352.94;10341489;28;20387;-65
2022/10/26 17:38:05;;;;;;;7.57;2.13;;;;;;;15.30;63.58;100359.50;10340730;28;20042;-66
2022/10/26 17:43:07;;;;;;;8.30;2.00;;;;;;;15.28;63.69;100378.06;10342567;28;20054;-66
2022/10/26 17:48:09;;;;;;;7.63;2.50;;;;;;;15.21;63.97;100386.50;10342014;28;20060;-66
2022/10/26 17:53:11;;;;;;;12.85;2.83;;;;;;;15.15;64.19;100390.41;10341267;28;20050;-65
2022/10/26 17:58:12;;;;;;;9.00;2.40;;;;;;;15.06;64.42;100396.34;10342168;28;20458;-66
2022/10/26 18:03:14;;;;;;;12.05;3.92;;;;;;;15.00;63.90;100399.41;10297119;28;1263349;-66
2022/10/26 18:08:16;;;;;;;12.88;4.30;;;;;;;14.81;64.29;100398.19;10344616;28;20713;-66
2022/10/26 18:13:18;;;;;;;12.43;3.05;;;;;;;14.65;64.84;100406.31;10339560;28;20678;-66
2022/10/26 18:18:20;;;;;;;6.32;2.40;;;;;;;14.59;65.26;100414.63;10339915;28;20050;-66
2022/10/26 18:23:22;;;;;;;11.52;2.92;;;;;;;14.55;65.45;100421.88;10336770;28;20354;-66
2022/10/26 18:28:24;;;;;;;10.13;2.88;;;;;;;14.41;65.58;100427.19;10343313;28;20957;-66
2022/10/26 18:33:26;;;;;;;12.27;3.40;;;;;;;14.26;66.17;100444.03;10339287;28;20053;-66
2022/10/26 18:38:28;;;;;;;14.15;3.00;;;;;;;14.13;66.48;100435.25;10341601;28;20530;-65
2022/10/26 18:43:30;;;;;;;12.02;3.60;;;;;;;14.07;66.66;100440.94;10342163;28;20497;-66
2022/10/26 18:48:32;;;;;;;11.13;2.92;;;;;;;14.00;67.14;100450.19;10343666;28;20058;-65
2022/10/26 18:53:36;;;;;;;9.02;2.75;;;;;;;13.97;66.82;100463.50;10341987;28;20442;-65
2022/10/26 18:58:40;;;;;;;10.88;3.03;;;;;;;13.91;67.09;100471.81;10340708;28;20054;-65
2022/10/26 19:03:43;;;;;;;9.50;3.10;;;;;;;13.82;67.36;100476.81;10348934;28;20100;-65
2022/10/26 19:08:45;;;;;;;14.98;3.13;;;;;;;13.74;67.44;100485.19;10348990;28;20061;-67
2022/10/26 19:13:54;;;;;;;16.38;3.10;;;;;;;13.63;67.84;100492.91;10347061;28;20445;-67
2022/10/26 19:18:56;;;;;;;18.73;4.35;;;;;;;13.54;67.74;100501.38;10349904;28;20068;-66
2022/10/26 19:24:00;;;;;;;14.13;4.05;;;;;;;13.45;67.96;100504.59;10349640;28;20060;-67
2022/10/26 19:29:04;;;;;;;13.00;4.10;;;;;;;13.36;68.34;100513.00;10349747;28;20053;-67
2022/10/26 19:34:06;;;;;;;14.50;3.83;;;;;;;13.28;68.57;100517.88;10349857;28;20056;-66
2022/10/26 19:39:09;;;;;;;15.85;4.10;;;;;;;13.23;68.46;100527.84;10348868;28;20149;-67
2022/10/26 19:44:12;;;;;;;15.40;3.65;;;;;;;13.19;68.60;100539.47;10349656;28;20050;-66
2022/10/26 19:49:17;;;;;;;17.27;3.85;;;;;;;13.12;68.83;100538.16;10347785;28;20062;-66
2022/10/26 19:54:19;;;;;;;10.90;4.47;;;;;;;13.05;68.96;100539.47;10346481;28;20104;-67
2022/10/26 19:59:22;;;;;;;13.35;3.80;;;;;;;12.89;69.12;100556.13;10345923;28;20054;-66
2022/10/26 20:04:25;;;;;;;20.40;5.22;;;;;;;12.80;68.73;100551.41;10347273;28;20093;-66
2022/10/26 20:09:28;;;;;;;17.40;4.25;;;;;;;12.70;69.15;100552.06;10346792;28;20082;-68
2022/10/26 20:14:30;;;;;;;8.02;3.20;;;;;;;12.64;69.19;100561.13;10344748;28;20100;-67
2022/10/26 20:19:32;;;;;;;19.08;4.78;;;;;;;12.56;69.61;100555.47;10346229;28;20046;-67
2022/10/26 20:24:34;;;;;;;9.40;4.38;;;;;;;12.60;69.49;100564.03;10342537;28;20057;-67
2022/10/26 20:29:36;;;;;;;12.60;5.95;;;;;;;12.62;69.45;100562.97;10344042;28;20093;-67
2022/10/26 20:34:38;;;;;;;13.30;3.85;;;;;;;12.57;69.64;100569.44;10343896;28;20054;-67
2022/10/26 20:39:44;;;;;;;13.65;4.00;;;;;;;12.46;69.62;100577.06;10346477;28;20053;-67
2022/10/26 20:44:49;;;;;;;16.08;4.07;;;;;;;12.42;69.40;100591.28;10342657;28;20320;-67
2022/10/26 20:49:51;;;;;;;10.55;3.53;;;;;;;12.46;69.52;100583.16;10341321;28;20483;-67
2022/10/26 20:55:09;;;;;;;12.77;4.40;;;;;;;12.50;69.34;100589.94;10342742;28;20089;-67
2022/10/26 21:00:12;;;;;;;12.75;4.40;;;;;;;12.45;69.28;100606.88;10342733;28;20522;-67
2022/10/26 21:05:17;;;;;;;15.48;4.07;;;;;;;12.45;69.12;100605.09;10339016;28;20128;-68
2022/10/26 21:10:18;;;;;;;16.10;5.10;;;;;;;12.39;68.97;100610.69;10340961;28;20396;-66
2022/10/26 21:15:20;;;;;;;12.25;5.38;;;;;;;12.22;69.02;100610.75;10341170;28;20060;-66
2022/10/26 21:20:22;;;;;;;17.00;5.07;;;;;;;12.12;69.26;100609.56;10342859;28;20128;-66
2022/10/26 21:25:24;;;;;;;16.23;4.38;;;;;;;12.14;69.29;100619.06;10339646;28;20049;-66
2022/10/26 21:30:26;;;;;;;16.23;4.90;;;;;;;12.14;69.15;100618.19;10340987;28;20056;-66
2022/10/26 21:35:28;;;;;;;14.70;4.43;;;;;;;12.12;69.05;100623.53;10342892;28;20175;-66
2022/10/26 21:40:30;;;;;;;12.48;4.43;;;;;;;12.09;69.20;100631.56;10341311;28;20084;-66
2022/10/26 21:45:32;;;;;;;17.45;5.18;;;;;;;12.06;69.07;100630.88;10343336;28;20065;-66
2022/10/26 21:50:33;;;;;;;17.23;5.82;;;;;;;12.00;69.61;100631.22;10340004;28;20058;-66
2022/10/26 21:55:35;;;;;;;12.75;4.97;;;;;;;11.96;69.56;100632.31;10342341;28;20141;-66
2022/10/26 22:00:37;;;;;;;16.38;6.05;;;;;;;11.93;69.34;100637.72;10340044;28;20161;-66
2022/10/26 22:05:39;;;;;;;20.48;5.88;;;;;;;11.88;69.58;100645.84;10340208;28;20568;-66
2022/10/26 22:10:46;;;;;;;15.93;5.47;;;;;;;11.81;69.18;100635.75;10339393;28;20148;-66
2022/10/26 22:15:48;;;;;;;13.52;4.63;;;;;;;11.74;69.12;100637.03;10340184;28;20167;-69
2022/10/26 22:20:57;;;;;;;40.38;4.93;;;;;;;11.66;69.29;100647.91;10341840;28;20190;-66
2022/10/26 22:26:10;;;;;;;12.50;5.65;;;;;;;11.54;69.61;100653.78;10340556;28;20482;-66
2022/10/26 22:31:17;;;;;;;15.15;4.03;;;;;;;11.54;69.57;100661.63;10340281;28;20092;-66
2022/10/26 22:36:20;;;;;;;13.70;4.30;;;;;;;11.57;69.29;100661.50;10344461;28;20052;-65
2022/10/26 22:41:23;;;;;;;18.13;4.35;;;;;;;11.56;69.42;100669.44;10349687;28;20046;-66
2022/10/26 22:46:27;;;;;;;22.33;4.80;;;;;;;11.43;69.61;100668.38;10350081;28;20054;-65
2022/10/26 22:51:33;;;;;;;20.08;5.70;;;;;;;11.34;69.74;100664.44;10348098;28;20054;-66
2022/10/26 22:56:35;;;;;;;20.08;4.60;;;;;;;11.36;69.46;100673.06;10346811;28;20046;-66
2022/10/26 23:01:40;;;;;;;14.35;4.22;;;;;;;11.19;69.45;100673.91;10346558;28;20516;-66
2022/10/26 23:06:42;;;;;;;16.63;5.00;;;;;;;11.15;69.62;100676.78;10348558;28;20046;-67
2022/10/26 23:11:44;;;;;;;16.30;4.60;;;;;;;11.17;69.22;100667.91;10344544;28;20108;-67
2022/10/26 23:16:46;;;;;;;15.15;3.72;;;;;;;11.20;69.29;100680.00;10340237;28;20053;-66
2022/10/26 23:21:47;;;;;;;14.82;4.00;;;;;;;11.21;69.21;100676.47;10346339;28;20461;-67